Time;durP1;ratioP1;P1;durP2;ratioP2;P2;SDS_P1;SDS_P2;PMS_P1;PMS_P2;Temp;Humidity;BMP_temperature;BMP_pressure;BME280_temperature;BME280_humidity;BME280_pressure;Samples;Min_cycle;Max_cycle;Signal;HPM_P1;HPM_P2
2023/04/10 00:01:39;;;;;;;57.20;42.72;;;8.70;99.90;;;;;;5015265;28;20097;-62
2023/04/10 00:04:05;;;;;;;61.00;44.70;;;8.70;99.90;;;;;;5014896;28;20053;-63
2023/04/10 00:06:31;;;;;;;56.13;42.00;;;8.70;99.90;;;;;;5031447;28;20069;-62
2023/04/10 00:08:58;;;;;;;57.03;42.05;;;8.70;99.90;;;;;;5018349;28;20373;-63
2023/04/10 00:11:25;;;;;;;61.22;44.97;;;8.70;99.90;;;;;;5018033;28;20064;-62
2023/04/10 00:13:53;;;;;;;59.33;44.83;;;8.60;99.90;;;;;;5018064;28;20516;-63
2023/04/10 00:16:19;;;;;;;59.65;42.65;;;8.60;99.90;;;;;;5001512;28;20108;-63
2023/04/10 00:18:46;;;;;;;58.70;44.20;;;8.60;99.90;;;;;;5017898;28;20053;-62
2023/04/10 00:21:12;;;;;;;55.05;42.55;;;8.60;99.90;;;;;;5017572;28;20064;-62
2023/04/10 00:23:38;;;;;;;58.83;43.40;;;8.60;99.90;;;;;;5017674;28;20050;-64
2023/04/10 00:26:05;;;;;;;63.53;45.90;;;8.50;99.90;;;;;;5018141;28;20156;-64
2023/04/10 00:28:31;;;;;;;56.38;42.42;;;8.50;99.90;;;;;;5017353;28;20045;-63
2023/04/10 00:30:57;;;;;;;61.13;43.17;;;8.50;99.90;;;;;;5014354;28;20045;-63
2023/04/10 00:33:23;;;;;;;60.78;43.00;;;8.40;99.90;;;;;;4998499;28;20124;-63
2023/04/10 00:35:49;;;;;;;57.40;41.15;;;8.40;99.90;;;;;;5014172;28;20081;-63
2023/04/10 00:38:16;;;;;;;58.30;43.30;;;8.40;99.90;;;;;;5014483;28;20423;-63
2023/04/10 00:40:42;;;;;;;55.78;44.08;;;8.40;99.90;;;;;;5017332;28;20491;-64
2023/04/10 00:43:08;;;;;;;58.47;46.00;;;8.30;99.90;;;;;;5017984;28;20057;-62
2023/04/10 00:45:35;;;;;;;58.85;44.55;;;8.30;99.90;;;;;;5016971;28;20501;-63
2023/04/10 00:48:02;;;;;;;55.55;42.88;;;8.30;99.90;;;;;;5001490;28;20138;-63
2023/04/10 00:50:29;;;;;;;59.95;44.45;;;8.30;99.90;;;;;;5016792;28;20472;-64
2023/04/10 00:52:56;;;;;;;55.65;42.92;;;8.20;99.90;;;;;;5017993;28;20053;-62
2023/04/10 00:55:22;;;;;;;56.47;43.10;;;8.20;99.90;;;;;;5033973;28;20210;-63
2023/04/10 00:57:49;;;;;;;58.45;43.97;;;8.20;99.90;;;;;;5017268;28;20049;-64
2023/04/10 01:00:16;;;;;;;57.95;43.90;;;8.10;99.90;;;;;;5019606;28;20130;-63
2023/04/10 01:02:42;;;;;;;60.85;44.20;;;8.10;99.90;;;;;;5013498;28;20049;-63
2023/04/10 01:05:11;;;;;;;60.65;44.10;;;8.00;99.90;;;;;;4997969;28;20056;-64
2023/04/10 01:08:12;;;;;;;60.00;46.38;;;8.00;99.90;;;;;;5014567;28;20077;-62
2023/04/10 01:10:57;;;;;;;58.17;43.45;;;8.00;99.90;;;;;;5034197;28;20081;-64
2023/04/10 01:13:40;;;;;;;61.35;43.83;;;8.00;99.90;;;;;;5000982;28;20160;-63
2023/04/10 01:16:12;;;;;;;59.92;44.53;;;7.90;99.90;;;;;;5033243;28;20489;-64
2023/04/10 01:18:55;;;;;;;56.05;43.78;;;7.90;99.90;;;;;;5033451;28;20041;-62
2023/04/10 01:21:22;;;;;;;57.80;44.25;;;7.90;99.90;;;;;;5000202;28;20065;-63
2023/04/10 01:24:08;;;;;;;59.95;42.35;;;7.90;99.90;;;;;;5016549;28;20052;-64
2023/04/10 01:27:10;;;;;;;60.40;44.95;;;7.80;99.90;;;;;;5017179;28;20458;-63
2023/04/10 01:29:48;;;;;;;56.83;42.33;;;7.80;99.90;;;;;;5017356;28;20377;-63
2023/04/10 01:32:20;;;;;;;56.33;41.90;;;7.80;99.90;;;;;;5016540;28;20469;-62
2023/04/10 01:34:48;;;;;;;;;;;7.80;99.90;;;;;;5017471;28;20081;-63
2023/04/10 01:37:28;;;;;;;60.88;42.40;;;7.80;99.90;;;;;;5016977;28;19921;-63
2023/04/10 01:40:02;;;;;;;54.58;45.60;;;7.70;99.90;;;;;;5033223;28;20054;-63
2023/04/10 01:42:43;;;;;;;56.83;39.95;;;7.70;99.90;;;;;;5017143;28;20401;-64
2023/04/10 01:45:17;;;;;;;58.03;42.03;;;7.70;99.90;;;;;;5016564;28;20064;-63
2023/04/10 01:47:43;;;;;;;54.10;40.53;;;7.70;99.90;;;;;;5016621;28;20049;-64
2023/04/10 01:50:11;;;;;;;55.35;40.97;;;7.70;99.90;;;;;;5016644;28;20049;-63
2023/04/10 01:52:38;;;;;;;59.17;44.30;;;7.60;99.90;;;;;;5016902;28;20139;-64
2023/04/10 01:55:06;;;;;;;58.45;42.30;;;7.70;99.90;;;;;;5016270;28;20060;-64
2023/04/10 01:57:34;;;;;;;53.97;40.88;;;7.70;99.90;;;;;;5016587;28;20081;-63
2023/04/10 02:00:02;;;;;;;51.33;40.83;;;7.60;99.90;;;;;;5033502;28;20442;-63
2023/04/10 02:02:32;;;;;;;55.05;43.90;;;7.60;99.90;;;;;;5016027;28;20045;-63
2023/04/10 02:04:59;;;;;;;55.65;42.65;;;7.60;99.90;;;;;;5015662;28;20382;-64
2023/04/10 02:07:36;;;;;;;53.70;40.53;;;7.60;99.90;;;;;;5016266;28;20480;-62
2023/04/10 02:10:29;;;;;;;50.30;39.83;;;7.60;99.90;;;;;;5029277;28;20141;-64
2023/04/10 02:13:01;;;;;;;48.50;37.78;;;7.60;99.90;;;;;;5012900;28;20470;-64
2023/04/10 02:15:31;;;;;;;52.17;37.08;;;7.50;99.90;;;;;;5012161;28;20058;-64
2023/04/10 02:18:03;;;;;;;48.45;38.25;;;7.50;99.90;;;;;;5029318;28;20090;-64
2023/04/10 02:20:31;;;;;;;52.33;36.15;;;7.50;99.90;;;;;;4999970;28;20049;-62
2023/04/10 02:23:02;;;;;;;48.35;37.15;;;7.50;99.90;;;;;;5015503;28;20050;-63
2023/04/10 02:25:32;;;;;;;46.92;39.92;;;7.50;99.90;;;;;;5016278;28;20136;-62
2023/04/10 02:28:03;;;;;;;49.13;35.75;;;7.50;99.90;;;;;;5031859;28;20054;-63
2023/04/10 02:30:30;;;;;;;46.00;35.63;;;7.50;99.90;;;;;;5012473;28;20057;-64
2023/04/10 02:32:56;;;;;;;46.33;35.72;;;7.50;99.90;;;;;;5012351;28;20276;-63
2023/04/10 02:35:22;;;;;;;46.92;36.60;;;7.50;99.90;;;;;;5012428;28;20432;-65
2023/04/10 02:37:49;;;;;;;42.50;32.22;;;7.50;99.90;;;;;;5012586;28;20053;-66
2023/04/10 02:40:15;;;;;;;42.75;33.20;;;7.50;99.90;;;;;;5012523;28;20158;-65
2023/04/10 02:42:42;;;;;;;44.95;33.50;;;7.40;99.90;;;;;;5014555;28;20088;-66
2023/04/10 02:45:09;;;;;;;43.45;31.27;;;7.40;99.90;;;;;;5016432;28;20088;-66
2023/04/10 02:47:35;;;;;;;42.30;34.15;;;7.40;99.90;;;;;;5016630;28;20052;-65
2023/04/10 02:50:01;;;;;;;43.17;32.53;;;7.40;99.90;;;;;;5019921;28;20477;-66
2023/04/10 02:52:28;;;;;;;43.03;33.25;;;7.40;99.90;;;;;;5019708;28;20405;-65
2023/04/10 02:54:54;;;;;;;42.40;32.85;;;7.40;99.90;;;;;;5018900;28;20471;-66
2023/04/10 02:57:21;;;;;;;42.25;31.58;;;7.40;99.90;;;;;;5003570;28;20084;-65
2023/04/10 02:59:51;;;;;;;39.08;29.33;;;7.40;99.90;;;;;;5018980;28;20057;-67
2023/04/10 03:02:17;;;;;;;38.97;27.20;;;7.40;99.90;;;;;;5020026;28;20053;-66
2023/04/10 03:04:44;;;;;;;35.97;29.27;;;7.40;99.90;;;;;;5035244;28;20053;-65
2023/04/10 03:07:10;;;;;;;37.13;27.50;;;7.40;99.90;;;;;;5019568;28;20081;-66
2023/04/10 03:09:36;;;;;;;36.05;29.05;;;7.40;99.90;;;;;;5019581;28;20085;-65
2023/04/10 03:12:02;;;;;;;33.63;25.48;;;7.40;99.90;;;;;;5019604;28;20091;-66
2023/04/10 03:14:29;;;;;;;36.20;26.38;;;7.40;99.90;;;;;;5002352;28;20396;-66
2023/04/10 03:16:55;;;;;;;34.83;25.65;;;7.40;99.90;;;;;;5003504;28;20089;-65
2023/04/10 03:19:21;;;;;;;33.92;25.05;;;7.40;99.90;;;;;;5013342;28;20066;-65
2023/04/10 03:21:48;;;;;;;37.70;27.30;;;7.40;99.90;;;;;;4983547;28;20045;-66
2023/04/10 03:24:14;;;;;;;31.60;23.90;;;7.40;99.90;;;;;;4999531;28;20361;-65
2023/04/10 03:26:41;;;;;;;33.85;25.58;;;7.50;99.90;;;;;;5015804;28;20125;-65
2023/04/10 03:29:07;;;;;;;34.53;25.13;;;7.50;99.90;;;;;;4999433;28;20042;-66
2023/04/10 03:31:33;;;;;;;32.00;22.75;;;7.50;99.90;;;;;;4999617;28;20056;-66
2023/04/10 03:34:00;;;;;;;34.67;25.50;;;7.50;99.90;;;;;;5015560;28;20065;-66
2023/04/10 03:36:26;;;;;;;31.13;21.73;;;7.60;99.90;;;;;;4999278;28;20096;-66
2023/04/10 03:38:53;;;;;;;31.42;22.45;;;7.60;99.90;;;;;;5000534;28;20459;-66
2023/04/10 03:41:20;;;;;;;33.88;25.33;;;7.60;99.90;;;;;;5018664;28;20085;-66
2023/04/10 03:43:46;;;;;;;29.80;21.83;;;7.70;99.90;;;;;;5001561;28;20099;-65
2023/04/10 03:46:12;;;;;;;28.65;23.15;;;7.60;99.90;;;;;;5018076;28;20045;-66
2023/04/10 03:48:40;;;;;;;28.88;21.80;;;7.70;99.90;;;;;;5018037;28;20045;-66
2023/04/10 03:51:06;;;;;;;30.80;23.92;;;7.60;99.90;;;;;;4998632;28;20081;-66
2023/04/10 03:53:34;;;;;;;27.85;21.98;;;7.70;99.90;;;;;;4997985;28;20049;-66
2023/04/10 03:56:02;;;;;;;29.70;20.52;;;7.60;99.90;;;;;;4999267;28;20112;-65
2023/04/10 03:58:28;;;;;;;27.92;22.35;;;7.60;99.90;;;;;;4983209;28;20088;-65
2023/04/10 04:00:55;;;;;;;29.55;22.83;;;7.60;99.90;;;;;;4999230;28;20127;-65
2023/04/10 04:03:21;;;;;;;29.20;19.92;;;7.60;99.90;;;;;;4998780;28;20046;-66
2023/04/10 04:05:47;;;;;;;27.88;19.98;;;7.50;99.90;;;;;;4982685;28;20464;-67
2023/04/10 04:08:14;;;;;;;29.05;21.05;;;7.50;99.90;;;;;;4999020;28;20056;-66
2023/04/10 04:10:40;;;;;;;27.88;21.65;;;7.50;99.90;;;;;;4998580;28;20429;-66
2023/04/10 04:13:06;;;;;;;26.38;20.70;;;7.50;99.90;;;;;;5017714;28;20126;-66
2023/04/10 04:15:33;;;;;;;28.20;19.38;;;7.50;99.90;;;;;;5017756;28;20136;-66
2023/04/10 04:17:59;;;;;;;28.15;20.95;;;7.50;99.90;;;;;;5017955;28;20080;-66
2023/04/10 04:20:25;;;;;;;24.63;19.15;;;7.50;99.90;;;;;;5017871;28;20086;-66
2023/04/10 04:22:52;;;;;;;27.63;18.08;;;7.60;99.90;;;;;;5017423;28;20127;-67
2023/04/10 04:25:18;;;;;;;28.08;19.15;;;7.60;99.90;;;;;;5018021;28;20049;-66
2023/04/10 04:27:45;;;;;;;24.35;19.10;;;7.60;99.90;;;;;;5017050;28;20077;-66
2023/04/10 04:30:11;;;;;;;23.75;16.80;;;7.60;99.90;;;;;;5017236;28;20053;-66
2023/04/10 04:32:38;;;;;;;24.73;18.67;;;7.70;99.90;;;;;;5034075;28;20057;-66
2023/04/10 04:35:04;;;;;;;26.55;17.92;;;7.70;99.90;;;;;;5017300;28;20092;-66
2023/04/10 04:37:31;;;;;;;26.42;19.27;;;7.70;99.90;;;;;;5017688;28;20041;-66
2023/04/10 04:39:57;;;;;;;26.48;18.50;;;7.70;99.90;;;;;;5017616;28;20077;-66
2023/04/10 04:42:23;;;;;;;23.95;17.42;;;7.70;99.90;;;;;;5017520;28;20072;-67
2023/04/10 04:44:50;;;;;;;24.35;17.17;;;7.70;99.90;;;;;;5000984;28;20055;-67
2023/04/10 04:47:16;;;;;;;23.00;18.13;;;7.70;99.90;;;;;;5017649;28;20247;-66
2023/04/10 04:49:42;;;;;;;23.15;16.25;;;7.70;99.90;;;;;;5016676;28;20053;-66
2023/04/10 04:52:09;;;;;;;23.30;16.77;;;7.70;99.90;;;;;;5033861;28;20167;-67
2023/04/10 04:54:35;;;;;;;21.75;15.75;;;7.70;99.90;;;;;;5017517;28;20096;-66
2023/04/10 04:57:02;;;;;;;23.90;18.45;;;7.70;99.90;;;;;;5017690;28;20055;-66
2023/04/10 04:59:28;;;;;;;25.08;17.38;;;7.70;99.90;;;;;;5011099;28;20077;-66
2023/04/10 05:01:54;;;;;;;25.50;16.02;;;7.70;99.90;;;;;;4997930;28;20441;-66
2023/04/10 05:04:20;;;;;;;21.83;17.33;;;7.70;99.90;;;;;;4997269;28;20053;-67
2023/04/10 05:06:47;;;;;;;24.40;18.02;;;7.80;99.90;;;;;;4996217;28;20466;-64
2023/04/10 05:09:13;;;;;;;21.80;17.33;;;7.80;99.90;;;;;;4980937;28;20077;-64
2023/04/10 05:11:39;;;;;;;22.65;17.60;;;7.80;99.90;;;;;;4996527;28;20152;-64
2023/04/10 05:14:06;;;;;;;20.77;15.10;;;7.80;99.90;;;;;;4996094;28;20093;-64
2023/04/10 05:16:32;;;;;;;22.63;16.92;;;7.80;99.90;;;;;;4996221;28;20495;-64
2023/04/10 05:18:58;;;;;;;25.02;18.08;;;7.80;99.90;;;;;;4994887;28;20136;-65
2023/04/10 05:21:24;;;;;;;21.88;16.13;;;7.80;99.90;;;;;;4976686;28;20064;-64
2023/04/10 05:23:51;;;;;;;21.00;15.68;;;7.90;99.90;;;;;;4976625;28;20054;-64
2023/04/10 05:26:17;;;;;;;21.00;15.40;;;7.90;99.90;;;;;;4976621;28;20078;-64
2023/04/10 05:28:43;;;;;;;22.25;16.10;;;7.90;99.90;;;;;;4976880;28;20082;-64
2023/04/10 05:31:10;;;;;;;26.33;17.17;;;7.90;99.90;;;;;;4977035;28;20050;-65
2023/04/10 05:33:36;;;;;;;25.10;16.48;;;7.90;99.90;;;;;;4976462;28;20096;-65
2023/04/10 05:36:02;;;;;;;21.98;14.45;;;7.90;99.90;;;;;;4960810;28;20085;-64
2023/04/10 05:38:29;;;;;;;23.00;17.08;;;8.00;99.90;;;;;;4976721;28;20068;-66
2023/04/10 05:40:55;;;;;;;21.23;14.75;;;8.00;99.90;;;;;;5009480;28;20049;-64
2023/04/10 05:43:22;;;;;;;22.77;15.52;;;8.10;99.90;;;;;;4979392;28;20081;-65
2023/04/10 05:45:48;;;;;;;21.50;14.27;;;8.20;99.90;;;;;;4995748;28;20478;-65
2023/04/10 05:48:15;;;;;;;23.80;17.10;;;8.20;99.90;;;;;;4995942;28;20136;-66
2023/04/10 05:50:41;;;;;;;21.63;14.63;;;8.30;99.90;;;;;;4980270;28;20042;-65
2023/04/10 05:53:11;;;;;;;21.27;15.05;;;8.50;99.90;;;;;;4976090;28;20518;-65
2023/04/10 05:55:37;;;;;;;20.77;15.73;;;8.60;99.90;;;;;;4992347;28;20086;-65
2023/04/10 05:58:04;;;;;;;19.92;14.35;;;8.70;99.90;;;;;;4976349;28;20050;-65
2023/04/10 06:00:30;;;;;;;21.30;14.50;;;8.90;99.90;;;;;;4985856;28;20454;-64
2023/04/10 06:02:56;;;;;;;21.60;15.30;;;9.00;99.90;;;;;;4983651;28;20042;-66
2023/04/10 06:05:22;;;;;;;18.90;13.75;;;9.20;99.90;;;;;;4986306;28;20421;-64
2023/04/10 06:07:49;;;;;;;22.17;15.20;;;9.40;99.90;;;;;;4988170;28;20072;-65
2023/04/10 06:10:15;;;;;;;19.23;14.27;;;9.80;99.90;;;;;;4968308;28;20054;-65
2023/04/10 06:12:41;;;;;;;21.50;15.25;;;10.10;99.90;;;;;;4985988;28;20132;-64
2023/04/10 06:15:08;;;;;;;21.83;14.77;;;10.40;99.90;;;;;;5006539;28;20143;-64
2023/04/10 06:17:40;;;;;;;20.42;15.45;;;10.60;99.90;;;;;;4979474;28;20137;-65
2023/04/10 06:20:07;;;;;;;19.67;14.77;;;10.70;99.90;;;;;;5002508;28;20054;-65
2023/04/10 06:22:33;;;;;;;19.77;14.05;;;10.70;99.90;;;;;;5011675;28;20462;-64
2023/04/10 06:24:59;;;;;;;18.83;15.15;;;10.70;99.90;;;;;;5011928;28;20061;-65
2023/04/10 06:27:26;;;;;;;20.35;15.05;;;10.50;99.90;;;;;;4995424;28;20088;-64
2023/04/10 06:29:53;;;;;;;22.10;13.73;;;10.40;99.90;;;;;;5011109;28;20053;-65
2023/04/10 06:32:19;;;;;;;18.67;13.95;;;10.70;99.90;;;;;;5020047;28;20451;-65
2023/04/10 06:34:46;;;;;;;20.02;14.65;;;11.00;99.90;;;;;;5011473;28;20428;-64
2023/04/10 06:37:12;;;;;;;20.17;13.55;;;11.10;99.90;;;;;;5013183;28;20068;-65
2023/04/10 06:39:39;;;;;;;20.27;14.32;;;11.00;99.90;;;;;;5004628;28;20477;-65
2023/04/10 06:42:07;;;;;;;21.35;14.38;;;10.80;99.90;;;;;;5011396;28;20088;-65
2023/04/10 06:44:33;;;;;;;19.45;14.00;;;10.70;99.90;;;;;;4978966;28;20089;-63
2023/04/10 06:46:59;;;;;;;19.92;14.18;;;10.80;99.90;;;;;;4994302;28;20081;-66
2023/04/10 06:49:25;;;;;;;18.85;13.40;;;11.00;99.90;;;;;;5001686;28;20339;-64
2023/04/10 06:51:52;;;;;;;18.38;14.73;;;11.10;99.90;;;;;;5004289;28;20469;-65
2023/04/10 06:54:18;;;;;;;19.90;15.10;;;11.20;99.90;;;;;;5023004;28;20392;-65
2023/04/10 06:56:44;;;;;;;19.42;14.50;;;11.40;99.90;;;;;;5010582;28;20046;-65
2023/04/10 06:59:11;;;;;;;20.02;15.43;;;11.40;99.90;;;;;;5008532;28;20370;-65
2023/04/10 07:01:37;;;;;;;21.95;17.08;;;11.40;99.90;;;;;;5011191;28;20085;-65
2023/04/10 07:04:04;;;;;;;20.10;15.10;;;11.50;99.90;;;;;;4988228;28;20046;-66
2023/04/10 07:06:31;;;;;;;17.98;14.27;;;11.60;99.90;;;;;;5002201;28;20042;-66
2023/04/10 07:08:57;;;;;;;20.35;14.75;;;11.50;99.90;;;;;;5007617;28;20115;-66
2023/04/10 07:11:23;;;;;;;18.75;14.55;;;11.60;99.90;;;;;;5018469;28;20418;-66
2023/04/10 07:13:52;;;;;;;18.33;14.35;;;11.70;99.90;;;;;;5004149;28;20370;-65
2023/04/10 07:16:18;;;;;;;17.50;15.07;;;11.80;99.90;;;;;;5002171;28;20077;-65
2023/04/10 07:18:44;;;;;;;17.27;13.82;;;11.80;99.90;;;;;;5005899;28;20438;-65
2023/04/10 07:21:12;;;;;;;22.67;15.25;;;11.90;99.90;;;;;;5010796;28;20045;-66
2023/04/10 07:23:38;;;;;;;20.35;15.43;;;11.80;99.90;;;;;;5014586;28;20077;-67
2023/04/10 07:26:05;;;;;;;19.52;14.13;;;11.90;99.90;;;;;;4998951;28;20045;-66
2023/04/10 07:28:32;;;;;;;19.20;15.23;;;12.00;99.90;;;;;;5007985;28;20084;-66
2023/04/10 07:30:58;;;;;;;19.15;13.82;;;12.10;99.90;;;;;;5000051;28;20133;-66
2023/04/10 07:33:24;;;;;;;19.67;14.13;;;12.20;99.90;;;;;;5018236;28;20076;-66
2023/04/10 07:35:51;;;;;;;21.15;13.68;;;12.20;99.90;;;;;;5033734;28;20057;-65
2023/04/10 07:38:17;;;;;;;18.85;13.90;;;12.40;99.90;;;;;;5017918;28;20485;-65
2023/04/10 07:40:44;;;;;;;17.55;12.90;;;12.60;99.90;;;;;;5017373;28;20050;-65
2023/04/10 07:43:10;;;;;;;15.10;13.50;;;12.70;99.90;;;;;;5001486;28;20492;-67
2023/04/10 07:45:36;;;;;;;15.70;13.00;;;12.80;99.90;;;;;;5017454;28;20054;-65
2023/04/10 07:48:05;;;;;;;18.30;13.02;;;13.00;99.90;;;;;;5017356;28;20060;-66
2023/04/10 07:50:31;;;;;;;14.85;12.45;;;13.10;99.90;;;;;;5010896;28;20475;-65
2023/04/10 07:53:02;;;;;;;15.00;12.68;;;13.10;99.90;;;;;;5011610;28;20096;-66
2023/04/10 07:55:28;;;;;;;18.30;12.88;;;13.10;99.90;;;;;;5024902;28;20054;-63
2023/04/10 07:57:55;;;;;;;15.73;12.90;;;13.00;99.90;;;;;;5023766;28;20079;-65
2023/04/10 08:00:21;;;;;;;14.45;10.98;;;13.00;99.90;;;;;;5009789;28;20053;-65
2023/04/10 08:02:47;;;;;;;14.88;12.00;;;13.10;99.90;;;;;;5016937;28;20081;-65
2023/04/10 08:05:13;;;;;;;15.82;13.07;;;13.10;99.90;;;;;;5016854;28;20115;-65
2023/04/10 08:07:40;;;;;;;14.57;11.35;;;13.00;99.90;;;;;;5026446;28;20609;-65
2023/04/10 08:10:06;;;;;;;14.82;11.13;;;13.10;99.90;;;;;;5008639;28;20045;-66
2023/04/10 08:12:33;;;;;;;14.65;11.55;;;13.30;99.90;;;;;;5016386;28;20168;-66
2023/04/10 08:14:59;;;;;;;15.07;11.55;;;13.40;99.90;;;;;;5030167;28;20350;-66
2023/04/10 08:17:26;;;;;;;15.18;10.63;;;13.50;99.90;;;;;;5001213;28;20045;-65
2023/04/10 08:19:52;;;;;;;15.52;11.95;;;13.60;99.90;;;;;;5015678;28;20405;-64
2023/04/10 08:22:18;;;;;;;15.07;11.50;;;13.60;99.90;;;;;;5033890;28;20095;-66
2023/04/10 08:24:44;;;;;;;13.38;10.73;;;13.50;99.90;;;;;;5016477;28;20049;-65
2023/04/10 08:27:19;;;;;;;15.10;10.93;;;13.60;99.90;;;;;;5032846;28;20065;-65
2023/04/10 08:29:46;;;;;;;14.07;11.55;;;13.70;99.90;;;;;;5014435;28;20571;-66
2023/04/10 08:32:12;;;;;;;15.98;12.02;;;13.80;99.90;;;;;;5034066;28;20045;-64
2023/04/10 08:34:38;;;;;;;13.52;10.60;;;13.90;99.90;;;;;;5015925;28;20049;-64
2023/04/10 08:37:05;;;;;;;13.10;10.57;;;13.90;99.90;;;;;;5034554;28;20053;-64
2023/04/10 08:39:34;;;;;;;17.08;13.18;;;14.00;99.90;;;;;;5031510;28;20042;-66
2023/04/10 08:42:02;;;;;;;15.50;11.75;;;14.00;99.90;;;;;;5016168;28;20045;-66
2023/04/10 08:44:28;;;;;;;13.68;11.57;;;14.10;99.90;;;;;;5017042;28;20060;-65
2023/04/10 08:46:58;;;;;;;14.20;10.80;;;14.20;99.90;;;;;;5034038;28;20054;-64
2023/04/10 08:49:39;;;;;;;13.45;11.20;;;14.30;99.90;;;;;;5013149;28;20056;-66
2023/04/10 08:52:15;;;;;;;12.88;10.52;;;14.30;99.90;;;;;;4997042;28;20049;-64
2023/04/10 08:54:46;;;;;;;14.57;10.95;;;14.40;99.90;;;;;;4997031;28;20197;-65
2023/04/10 08:57:19;;;;;;;13.20;11.20;;;14.50;99.90;;;;;;5011619;28;20469;-65
2023/04/10 08:59:47;;;;;;;13.05;10.77;;;14.50;99.90;;;;;;5033380;28;20042;-64
2023/04/10 09:02:13;;;;;;;15.07;10.93;;;14.50;99.60;;;;;;5016210;28;20045;-64
2023/04/10 09:04:46;;;;;;;13.73;11.10;;;14.60;99.90;;;;;;4999681;28;20089;-64
2023/04/10 09:07:12;;;;;;;15.43;10.40;;;14.70;99.70;;;;;;5032794;28;20045;-65
2023/04/10 09:09:39;;;;;;;12.85;9.95;;;14.70;99.90;;;;;;4994712;28;20074;-64
2023/04/10 09:12:06;;;;;;;13.15;10.55;;;14.80;99.90;;;;;;5031433;28;20107;-65
2023/04/10 09:14:34;;;;;;;14.45;10.50;;;14.90;99.90;;;;;;5009592;28;20133;-64
2023/04/10 09:17:20;;;;;;;14.07;10.63;;;14.90;99.70;;;;;;4996001;28;20042;-65
2023/04/10 09:19:48;;;;;;;13.68;10.00;;;15.00;99.50;;;;;;5011231;28;20097;-65
2023/04/10 09:22:15;;;;;;;14.43;10.57;;;15.20;99.90;;;;;;4993217;28;20042;-65
2023/04/10 09:24:44;;;;;;;14.13;10.00;;;15.10;99.30;;;;;;4995407;28;20048;-65
2023/04/10 09:27:25;;;;;;;11.45;9.57;;;15.20;99.80;;;;;;4995871;28;20390;-65
2023/04/10 09:29:51;;;;;;;13.27;10.65;;;15.30;99.30;;;;;;4988252;28;20084;-66
2023/04/10 09:32:38;;;;;;;14.82;10.90;;;15.30;99.60;;;;;;4994031;28;20046;-65
2023/04/10 09:35:06;;;;;;;11.77;9.32;;;15.40;98.70;;;;;;4962245;28;20477;-67
2023/04/10 09:37:33;;;;;;;12.45;8.93;;;15.40;99.20;;;;;;5011739;28;20076;-64
2023/04/10 09:40:00;;;;;;;10.07;8.80;;;15.40;98.60;;;;;;4994926;28;20490;-64
2023/04/10 09:42:36;;;;;;;10.25;8.68;;;15.50;98.70;;;;;;4995035;28;20037;-65
2023/04/10 09:45:03;;;;;;;11.52;10.18;;;15.70;98.60;;;;;;4994427;28;20461;-66
2023/04/10 09:47:30;;;;;;;10.70;8.52;;;15.70;98.50;;;;;;5011132;28;20069;-66
2023/04/10 09:50:01;;;;;;;10.57;8.18;;;15.60;98.20;;;;;;5005642;28;20462;-65
2023/04/10 09:52:33;;;;;;;12.73;9.32;;;15.60;97.90;;;;;;4992760;28;20053;-64
2023/04/10 09:55:07;;;;;;;10.57;8.93;;;15.50;97.90;;;;;;4975835;28;20461;-64
2023/04/10 09:57:34;;;;;;;10.55;8.88;;;15.60;98.20;;;;;;4960544;28;20104;-65
2023/04/10 10:00:07;;;;;;;10.73;8.32;;;15.60;98.40;;;;;;4983580;28;20092;-65
2023/04/10 10:02:37;;;;;;;10.73;8.52;;;15.60;98.40;;;;;;5011872;28;20453;-65
2023/04/10 10:05:04;;;;;;;10.93;8.45;;;15.60;98.40;;;;;;4979764;28;20053;-65
2023/04/10 10:07:31;;;;;;;10.40;8.32;;;15.60;98.20;;;;;;4990119;28;20124;-64
2023/04/10 10:09:59;;;;;;;9.25;8.18;;;15.50;98.00;;;;;;4994865;28;20433;-65
2023/04/10 10:12:39;;;;;;;11.23;8.32;;;15.50;98.20;;;;;;5011081;28;20050;-64
2023/04/10 10:15:28;;;;;;;9.77;8.18;;;15.50;98.20;;;;;;5005190;28;20501;-65
2023/04/10 10:18:16;;;;;;;10.30;8.68;;;15.60;98.30;;;;;;5014848;28;20495;-64
2023/04/10 10:20:44;;;;;;;10.30;8.15;;;15.80;98.70;;;;;;5014522;28;20068;-65
2023/04/10 10:23:12;;;;;;;11.45;10.02;;;15.90;98.90;;;;;;5014512;28;20055;-64
2023/04/10 10:25:39;;;;;;;9.95;7.95;;;15.80;98.60;;;;;;5014885;28;20064;-66
2023/04/10 10:28:06;;;;;;;11.55;9.10;;;15.90;98.90;;;;;;5015348;28;20055;-65
2023/04/10 10:30:33;;;;;;;10.68;9.05;;;15.80;98.20;;;;;;5014760;28;20076;-65
2023/04/10 10:33:04;;;;;;;10.27;8.40;;;15.70;98.50;;;;;;4996597;28;20132;-66
2023/04/10 10:35:31;;;;;;;10.35;8.98;;;15.70;98.70;;;;;;5014495;28;20350;-65
2023/04/10 10:38:00;;;;;;;10.23;8.05;;;15.60;98.60;;;;;;4998590;28;20053;-64
2023/04/10 10:40:53;;;;;;;9.90;8.00;;;15.60;98.60;;;;;;5015039;28;20111;-67
2023/04/10 10:43:27;;;;;;;11.10;8.30;;;15.70;98.40;;;;;;5030750;28;20077;-65
2023/04/10 10:46:07;;;;;;;8.40;7.50;;;15.70;97.90;;;;;;5033134;28;20059;-65
2023/04/10 10:48:34;;;;;;;11.23;7.30;;;15.80;98.00;;;;;;5032211;28;20045;-65
2023/04/10 10:51:02;;;;;;;9.55;8.05;;;15.80;97.90;;;;;;5014762;28;20091;-64
2023/04/10 10:53:35;;;;;;;9.82;7.82;;;15.80;98.30;;;;;;5014766;28;20060;-64
2023/04/10 10:56:22;;;;;;;9.25;7.43;;;15.90;98.30;;;;;;5015372;28;20056;-64
2023/04/10 10:58:50;;;;;;;8.95;7.80;;;16.00;98.40;;;;;;5015137;28;20064;-65
2023/04/10 11:01:17;;;;;;;9.02;7.50;;;15.90;97.80;;;;;;5014723;28;20061;-65
2023/04/10 11:03:44;;;;;;;8.10;7.13;;;16.00;97.70;;;;;;5032591;28;20049;-66
2023/04/10 11:06:15;;;;;;;10.02;7.82;;;16.00;98.00;;;;;;5018682;28;20073;-65
2023/04/10 11:08:46;;;;;;;9.40;7.78;;;15.90;97.90;;;;;;5035019;28;20050;-65
2023/04/10 11:11:23;;;;;;;10.35;9.35;;;16.00;98.10;;;;;;5018074;28;20049;-66
2023/04/10 11:13:59;;;;;;;10.30;7.95;;;15.90;98.00;;;;;;5034449;28;20059;-65
2023/04/10 11:16:40;;;;;;;10.30;9.20;;;15.90;98.20;;;;;;4998702;28;20089;-65
2023/04/10 11:19:11;;;;;;;10.98;8.32;;;15.90;98.10;;;;;;5015693;28;20042;-65
2023/04/10 11:22:00;;;;;;;9.57;7.97;;;15.90;98.10;;;;;;4996159;28;20466;-64
2023/04/10 11:24:27;;;;;;;9.70;7.95;;;15.80;97.90;;;;;;4978493;28;20047;-65
2023/04/10 11:26:55;;;;;;;9.25;7.22;;;15.90;98.30;;;;;;4979019;28;20085;-65
2023/04/10 11:29:27;;;;;;;10.02;7.30;;;16.00;98.50;;;;;;4995930;28;20077;-64
2023/04/10 11:32:03;;;;;;;7.70;6.90;;;16.10;98.20;;;;;;4979118;28;20149;-65
2023/04/10 11:34:29;;;;;;;9.30;7.70;;;16.10;98.00;;;;;;4946979;28;20058;-65
2023/04/10 11:36:56;;;;;;;9.38;8.10;;;16.10;98.10;;;;;;4978807;28;20081;-66
2023/04/10 11:39:22;;;;;;;8.88;7.20;;;16.30;98.50;;;;;;4996388;28;20079;-67
2023/04/10 11:41:50;;;;;;;9.05;7.30;;;16.40;98.60;;;;;;4998148;28;20053;-64
2023/04/10 11:44:26;;;;;;;9.73;8.05;;;16.40;98.70;;;;;;4997681;28;20443;-64
2023/04/10 11:46:52;;;;;;;12.70;8.07;;;16.60;98.60;;;;;;4998593;28;20081;-65
2023/04/10 11:49:52;;;;;;;9.82;7.28;;;16.60;98.40;;;;;;4996566;28;20476;-64
2023/04/10 11:52:24;;;;;;;8.77;7.45;;;16.60;97.80;;;;;;4978424;28;20133;-64
2023/04/10 11:54:51;;;;;;;9.90;7.65;;;16.60;97.80;;;;;;4994668;28;20064;-64
2023/04/10 11:57:17;;;;;;;9.25;7.35;;;16.70;98.10;;;;;;4963077;28;20142;-65
2023/04/10 11:59:49;;;;;;;8.63;6.88;;;16.80;97.80;;;;;;4995364;28;20082;-66
2023/04/10 12:02:15;;;;;;;8.88;6.85;;;16.90;97.90;;;;;;4994185;28;20386;-66
2023/04/10 12:04:42;;;;;;;8.48;6.72;;;16.90;97.90;;;;;;4995495;28;20054;-64
2023/04/10 12:07:09;;;;;;;9.23;7.07;;;16.90;97.90;;;;;;4996470;28;20085;-64
2023/04/10 12:09:35;;;;;;;9.70;6.93;;;17.00;98.10;;;;;;4981521;28;20060;-65
2023/04/10 12:12:03;;;;;;;8.48;7.57;;;16.90;97.70;;;;;;4997395;28;20057;-65
2023/04/10 12:14:35;;;;;;;8.07;6.38;;;16.90;97.60;;;;;;5000151;28;20053;-66
2023/04/10 12:17:04;;;;;;;7.18;6.47;;;16.80;97.90;;;;;;5033781;28;20084;-66
2023/04/10 12:19:31;;;;;;;8.80;7.03;;;16.80;97.90;;;;;;5017011;28;20056;-66
2023/04/10 12:21:58;;;;;;;7.32;6.57;;;16.80;98.10;;;;;;5016583;28;20061;-65
2023/04/10 12:24:45;;;;;;;8.48;5.95;;;16.70;98.00;;;;;;5016889;28;20052;-64
2023/04/10 12:27:19;;;;;;;7.70;6.35;;;16.70;98.10;;;;;;5017024;28;20141;-65
2023/04/10 12:29:47;;;;;;;7.72;6.82;;;16.60;98.00;;;;;;5016578;28;20045;-65
2023/04/10 12:32:15;;;;;;;7.22;6.43;;;16.60;98.40;;;;;;5016485;28;20477;-66
2023/04/10 12:34:41;;;;;;;7.40;6.60;;;16.60;98.50;;;;;;5016965;28;20089;-64
2023/04/10 12:37:10;;;;;;;9.73;7.22;;;16.70;98.80;;;;;;5016754;28;20052;-66
2023/04/10 12:39:37;;;;;;;8.02;6.80;;;16.70;98.80;;;;;;5016378;28;20092;-64
2023/04/10 12:42:21;;;;;;;8.18;6.72;;;16.70;98.70;;;;;;5000400;28;20085;-65
2023/04/10 12:44:52;;;;;;;8.65;6.72;;;16.60;98.70;;;;;;5016751;28;20133;-65